createdAt,value
2022-09-27T00:03:38.148Z,98883.03
2022-09-27T00:08:41.109Z,98872.94
2022-09-27T00:13:45.406Z,98877.88
2022-09-27T00:18:48.288Z,98873.66
2022-09-27T00:23:51.209Z,98866.50
2022-09-27T00:28:55.490Z,98857.06
2022-09-27T00:34:00.095Z,98855.63
2022-09-27T00:39:03.355Z,98850.03
2022-09-27T00:45:00.761Z,98847.31
2022-09-27T00:50:09.871Z,98849.97
2022-09-27T00:55:17.258Z,98842.72
2022-09-27T01:00:23.067Z,98841.31
2022-09-27T01:05:29.437Z,98836.09
2022-09-27T01:10:38.478Z,98831.16
2022-09-27T01:15:51.062Z,98829.53
2022-09-27T01:21:27.491Z,98818.75
2022-09-27T01:26:48.524Z,98822.34
2022-09-27T01:32:03.874Z,98815.41
2022-09-27T01:37:16.813Z,98811.09
2022-09-27T01:42:24.863Z,98805.69
2022-09-27T01:47:38.399Z,98805.69
2022-09-27T01:53:16.122Z,98798.72
2022-09-27T01:58:47.189Z,98794.00
2022-09-27T02:03:53.446Z,98790.19
2022-09-27T02:09:17.254Z,98784.03
2022-09-27T02:14:47.583Z,98783.31
2022-09-27T02:20:03.681Z,98785.19
2022-09-27T02:25:19.474Z,98777.47
2022-09-27T02:30:22.670Z,98782.16
2022-09-27T02:35:35.733Z,98777.03
2022-09-27T02:40:45.505Z,98774.00
2022-09-27T02:45:59.847Z,98764.47
2022-09-27T02:51:34.046Z,98770.50
2022-09-27T02:56:44.892Z,98766.03
2022-09-27T03:02:14.270Z,98759.75
2022-09-27T03:07:32.584Z,98758.09
2022-09-27T03:12:36.114Z,98760.03
2022-09-27T03:17:39.219Z,98761.22
2022-09-27T03:23:01.980Z,98755.19
2022-09-27T03:28:06.009Z,98748.75
2022-09-27T03:33:10.278Z,98740.97
2022-09-27T03:38:31.361Z,98740.16
2022-09-27T03:43:35.984Z,98725.47
2022-09-27T03:48:41.908Z,98723.69
2022-09-27T03:53:46.775Z,98731.50
2022-09-27T03:58:49.843Z,98713.06
2022-09-27T04:03:53.950Z,98709.94
2022-09-27T04:09:10.161Z,98719.00
2022-09-27T04:14:31.533Z,98719.16
2022-09-27T04:19:57.565Z,98718.94
2022-09-27T04:25:02.723Z,98717.41
2022-09-27T04:30:13.842Z,98713.91
2022-09-27T04:36:06.374Z,98714.19
2022-09-27T04:41:12.712Z,98716.91
2022-09-27T04:46:17.355Z,98710.66
2022-09-27T04:51:20.408Z,98709.97
2022-09-27T04:56:25.607Z,98709.22
2022-09-27T05:01:30.293Z,98707.91
2022-09-27T05:06:33.641Z,98711.38
2022-09-27T05:11:44.411Z,98717.09
2022-09-27T05:16:54.022Z,98715.22
2022-09-27T05:22:08.949Z,98722.78
2022-09-27T05:27:18.462Z,98712.25
2022-09-27T05:32:22.451Z,98717.00
2022-09-27T05:37:33.689Z,98716.19
2022-09-27T05:42:40.122Z,98722.78
2022-09-27T05:47:43.111Z,98725.91
2022-09-27T05:52:46.039Z,98716.72
2022-09-27T05:58:02.486Z,98725.06
2022-09-27T06:03:15.722Z,98727.47
2022-09-27T06:08:38.470Z,98724.56
2022-09-27T06:13:44.006Z,98730.44
2022-09-27T06:18:48.560Z,98717.91
2022-09-27T06:23:54.290Z,98729.72
2022-09-27T06:29:05.116Z,98728.19
2022-09-27T06:34:10.067Z,98738.22
2022-09-27T06:39:12.999Z,98739.66
2022-09-27T06:44:28.560Z,98743.69
2022-09-27T06:49:50.204Z,98749.25
2022-09-27T06:54:54.928Z,98745.69
2022-09-27T07:00:19.557Z,98754.69
2022-09-27T07:05:41.859Z,98759.34
2022-09-27T07:10:55.268Z,98763.25
2022-09-27T07:16:00.587Z,98770.19
2022-09-27T07:21:03.722Z,98781.03
2022-09-27T07:26:10.395Z,98779.13
2022-09-27T07:31:14.745Z,98784.22
2022-09-27T07:36:17.786Z,98789.25
2022-09-27T07:41:22.583Z,98786.03
2022-09-27T07:46:27.051Z,98793.25
2022-09-27T07:51:53.173Z,98794.41
2022-09-27T07:57:25.227Z,98795.09
2022-09-27T08:02:32.891Z,98791.00
2022-09-27T08:07:36.462Z,98805.13
2022-09-27T08:12:40.168Z,98819.03
2022-09-27T08:17:44.644Z,98811.56
2022-09-27T08:23:04.106Z,98815.91
2022-09-27T08:28:11.520Z,98824.31
2022-09-27T08:33:20.446Z,98827.75
2022-09-27T08:38:23.828Z,98832.34
2022-09-27T08:43:40.420Z,98844.97
2022-09-27T08:48:50.238Z,98842.88
2022-09-27T08:53:57.319Z,98860.41
2022-09-27T08:59:12.913Z,98860.38
2022-09-27T09:04:25.753Z,98858.00
2022-09-27T09:09:38.997Z,98869.16
2022-09-27T09:15:13.775Z,98864.63
2022-09-27T09:20:31.059Z,98877.56
2022-09-27T09:25:46.618Z,98889.69
2022-09-27T09:31:01.914Z,98895.97
2022-09-27T09:36:14.048Z,98890.78
2022-09-27T09:41:21.603Z,98892.91
2022-09-27T09:46:28.336Z,98885.06
2022-09-27T09:51:41.029Z,98894.66
2022-09-27T09:56:49.923Z,98891.38
2022-09-27T10:01:55.936Z,98887.97
2022-09-27T10:07:02.349Z,98893.34
2022-09-27T10:12:11.043Z,98905.72
2022-09-27T10:17:18.061Z,98890.50
2022-09-27T10:22:29.093Z,98886.78
2022-09-27T10:27:42.005Z,98893.13
2022-09-27T10:32:45.804Z,98902.38
2022-09-27T10:38:23.793Z,98903.19
2022-09-27T10:43:33.245Z,98915.63
2022-09-27T10:49:20.264Z,98915.53
2022-09-27T10:54:28.690Z,98915.69
2022-09-27T10:59:35.289Z,98919.53
2022-09-27T11:04:40.376Z,98920.59
2022-09-27T11:09:52.752Z,98921.28
2022-09-27T11:15:02.453Z,98918.78
2022-09-27T11:20:20.159Z,98916.47
2022-09-27T11:25:33.879Z,98921.38
2022-09-27T11:30:47.467Z,98920.91
2022-09-27T11:36:10.441Z,98921.53
2022-09-27T11:41:28.797Z,98926.75
2022-09-27T11:46:41.356Z,98931.94
2022-09-27T11:52:14.925Z,98931.84
2022-09-27T11:57:26.456Z,98933.47
2022-09-27T12:02:49.650Z,98937.72
2022-09-27T12:08:13.833Z,98940.75
2022-09-27T12:13:34.244Z,98942.16
2022-09-27T12:18:39.882Z,98941.13
2022-09-27T12:23:58.764Z,98944.44
2022-09-27T12:29:16.203Z,98938.66
2022-09-27T12:34:23.695Z,98940.25
2022-09-27T12:39:35.140Z,98939.00
2022-09-27T12:44:54.395Z,98939.63
2022-09-27T12:50:05.346Z,98946.22
2022-09-27T12:55:30.415Z,98934.63
2022-09-27T13:00:42.457Z,98947.69
2022-09-27T13:06:14.259Z,98953.81
2022-09-27T13:11:21.961Z,98956.09
2022-09-27T13:16:26.817Z,98962.53
2022-09-27T13:21:58.342Z,98964.59
2022-09-27T13:27:40.923Z,98969.16
2022-09-27T13:33:23.592Z,98973.13
2022-09-27T13:38:34.427Z,98987.03
2022-09-27T13:43:58.819Z,98990.44
2022-09-27T13:49:20.690Z,98994.50
2022-09-27T13:54:52.559Z,99000.19
2022-09-27T14:00:04.087Z,98991.44
2022-09-27T14:07:20.985Z,98997.50
2022-09-27T14:12:14.083Z,99003.56
2022-09-27T14:17:17.453Z,99006.13
2022-09-27T14:22:24.828Z,99013.44
2022-09-27T14:27:31.788Z,99007.22
2022-09-27T14:32:48.782Z,99008.09
2022-09-27T14:38:07.553Z,99019.13
2022-09-27T14:43:22.943Z,99022.84
2022-09-27T14:48:29.344Z,99016.78
2022-09-27T14:53:35.820Z,99026.31
2022-09-27T14:58:54.038Z,99029.13
2022-09-27T15:03:58.325Z,99033.81
2022-09-27T15:09:03.075Z,99040.47
2022-09-27T15:14:06.231Z,99041.59
2022-09-27T15:19:17.313Z,99034.63
2022-09-27T15:24:45.010Z,99042.47
2022-09-27T15:29:51.594Z,99051.16
2022-09-27T15:34:56.619Z,99055.41
2022-09-27T15:40:29.953Z,99060.50
2022-09-27T15:50:51.899Z,99072.38
2022-09-27T15:55:56.039Z,99075.19
2022-09-27T16:01:02.402Z,99074.16
2022-09-27T16:06:05.819Z,99077.56
2022-09-27T16:11:15.820Z,99084.84
2022-09-27T16:16:23.687Z,99089.09
2022-09-27T16:21:26.699Z,99091.66
2022-09-27T16:26:34.148Z,99099.97
2022-09-27T16:31:37.052Z,99102.78
2022-09-27T16:36:40.633Z,99112.38
2022-09-27T16:41:44.716Z,99114.19
2022-09-27T16:46:47.569Z,99124.78
2022-09-27T16:52:02.429Z,99132.63
2022-09-27T16:57:06.621Z,99129.47
2022-09-27T17:02:10.511Z,99128.31
2022-09-27T17:07:13.397Z,99121.97
2022-09-27T17:12:17.631Z,99131.97
2022-09-27T17:17:20.609Z,99129.72
2022-09-27T17:22:23.494Z,99138.09
2022-09-27T17:27:29.195Z,99137.06
2022-09-27T17:32:31.957Z,99140.97
2022-09-27T17:37:34.919Z,99144.34
2022-09-27T17:42:39.307Z,99154.69
2022-09-27T17:47:59.729Z,99144.00
2022-09-27T17:53:02.709Z,99148.25
2022-09-27T17:58:32.446Z,99147.78
2022-09-27T18:03:35.662Z,99148.66
2022-09-27T18:08:39.199Z,99155.94
2022-09-27T18:13:44.868Z,99157.56
2022-09-27T18:18:49.550Z,99161.13
2022-09-27T18:23:53.120Z,99157.88
2022-09-27T18:29:01.674Z,99172.75
2022-09-27T18:34:05.202Z,99158.97
2022-09-27T18:39:09.673Z,99160.31
2022-09-27T18:44:15.223Z,99162.38
2022-09-27T18:49:21.162Z,99163.88
2022-09-27T18:54:27.680Z,99163.25
2022-09-27T18:59:31.788Z,99168.91
2022-09-27T19:04:34.636Z,99171.59
2022-09-27T19:09:37.428Z,99175.59
2022-09-27T19:14:41.564Z,99178.84
2022-09-27T19:19:44.535Z,99178.97
2022-09-27T19:24:47.440Z,99183.16
2022-09-27T19:29:51.569Z,99171.84
2022-09-27T19:34:54.367Z,99180.16
2022-09-27T19:39:57.126Z,99175.44
2022-09-27T19:45:01.384Z,99174.94
2022-09-27T19:50:04.688Z,99172.94
2022-09-27T19:55:08.696Z,99175.53
2022-09-27T20:00:13.494Z,99180.44
2022-09-27T20:05:16.499Z,99176.94
2022-09-27T20:10:19.294Z,99185.25
2022-09-27T20:15:25.166Z,99180.03
2022-09-27T20:20:28.058Z,99180.66
2022-09-27T20:25:30.961Z,99186.47
2022-09-27T20:30:35.209Z,99187.59
2022-09-27T20:35:38.101Z,99178.84
2022-09-27T20:40:41.082Z,99174.13
2022-09-27T20:45:57.527Z,99178.41
2022-09-27T20:51:04.656Z,99177.13
2022-09-27T20:56:17.132Z,99175.88
2022-09-27T21:01:22.656Z,99176.75
2022-09-27T21:06:27.118Z,99182.94
2022-09-27T21:11:29.956Z,99177.66
2022-09-27T21:16:36.310Z,99178.38
2022-09-27T21:21:39.101Z,99179.69
2022-09-27T21:26:41.784Z,99180.09
2022-09-27T21:31:45.934Z,99186.47
2022-09-27T21:36:48.671Z,99195.69
2022-09-27T21:41:51.849Z,99192.16
2022-09-27T21:46:56.092Z,99193.91
2022-09-27T21:51:58.880Z,99194.31
2022-09-27T21:57:02.218Z,99202.47
2022-09-27T22:02:06.346Z,99203.91
2022-09-27T22:07:09.053Z,99202.72
2022-09-27T22:12:11.752Z,99203.66
2022-09-27T22:17:15.877Z,99214.78
2022-09-27T22:22:18.581Z,99206.13
2022-09-27T22:27:21.317Z,99214.84
2022-09-27T22:32:25.456Z,99209.44
2022-09-27T22:37:28.261Z,99211.97
2022-09-27T22:42:31.008Z,99208.56
2022-09-27T22:47:36.448Z,99206.44
2022-09-27T22:52:39.412Z,99203.47
2022-09-27T22:57:43.201Z,99205.72
2022-09-27T23:02:47.324Z,99205.78
2022-09-27T23:07:51.744Z,99206.63
2022-09-27T23:12:55.497Z,99203.25
2022-09-27T23:17:59.886Z,99203.91
2022-09-27T23:23:02.735Z,99199.16
2022-09-27T23:28:05.417Z,99196.94
2022-09-27T23:33:09.517Z,99195.31
2022-09-27T23:38:13.741Z,99195.16
2022-09-27T23:43:16.486Z,99192.13
2022-09-27T23:48:20.812Z,99187.63
2022-09-27T23:53:24.186Z,99191.06
2022-09-27T23:58:26.918Z,99191.59
